Time;durP1;ratioP1;P1;durP2;ratioP2;P2;SDS_P1;SDS_P2;PMS_P1;PMS_P2;Temp;Humidity;BMP_temperature;BMP_pressure;BME280_temperature;BME280_humidity;BME280_pressure;Samples;Min_cycle;Max_cycle;Signal;HPM_P1;HPM_P2
2021/10/28 00:13:03;;;;;;;9.40;7.80;;;;;;;12.53;74.15;101268.04;85839;1313;96067;-66
2021/10/28 00:15:22;;;;;;;10.50;8.80;;;;;;;12.53;74.11;101266.45;85878;1313;87865;-67
2021/10/28 00:17:44;;;;;;;9.70;7.70;;;;;;;12.51;74.15;101267.39;85879;1313;94779;-67
2021/10/28 00:19:52;;;;;;;11.50;8.20;;;;;;;12.51;74.29;101263.95;85764;1319;79489;-67
2021/10/28 00:22:00;;;;;;;9.50;7.90;;;;;;;12.52;74.43;101262.02;85914;1313;82589;-65
2021/10/28 00:24:11;;;;;;;11.40;9.10;;;;;;;12.52;74.49;101265.06;85861;1317;98026;-65
2021/10/28 00:26:19;;;;;;;10.60;8.90;;;;;;;12.50;74.39;101261.27;85845;1317;88433;-65
2021/10/28 00:28:30;;;;;;;12.10;9.70;;;;;;;12.53;74.38;101262.24;85874;1313;93314;-65
2021/10/28 00:30:37;;;;;;;11.60;9.10;;;;;;;12.53;74.39;101260.45;85914;1320;80688;-64
2021/10/28 00:32:45;;;;;;;12.50;9.30;;;;;;;12.54;74.50;101261.05;85944;1313;80968;-65
2021/10/28 00:34:53;;;;;;;12.20;9.30;;;;;;;12.54;74.53;101260.88;85887;1313;98576;-65
2021/10/28 00:37:00;;;;;;;11.60;9.60;;;;;;;12.53;74.50;101262.00;85863;1313;87873;-66
2021/10/28 00:39:09;;;;;;;13.10;9.70;;;;;;;12.52;74.51;101259.35;85932;1314;94749;-66
2021/10/28 00:41:19;;;;;;;11.90;8.60;;;;;;;12.50;74.48;101260.83;85865;1314;81720;-66
2021/10/28 00:43:26;;;;;;;11.90;9.50;;;;;;;12.48;74.55;101256.50;85723;1313;80866;-66
2021/10/28 00:45:40;;;;;;;11.60;10.10;;;;;;;12.49;74.60;101254.83;85943;1317;97756;-64
2021/10/28 00:47:47;;;;;;;11.40;10.20;;;;;;;12.49;74.66;101253.55;85853;1313;86942;-64
2021/10/28 00:49:55;;;;;;;12.50;9.30;;;;;;;12.49;74.73;101251.41;85888;1318;94776;-65
2021/10/28 00:52:03;;;;;;;14.00;9.80;;;;;;;12.49;74.67;101252.63;85868;1314;80789;-66
2021/10/28 00:54:14;;;;;;;11.40;10.20;;;;;;;12.50;74.71;101252.32;85942;1317;81846;-66
2021/10/28 00:56:27;;;;;;;16.20;10.10;;;;;;;12.50;74.78;101256.11;85878;1313;99339;-67
2021/10/28 00:58:36;;;;;;;12.90;9.60;;;;;;;12.49;74.77;101254.42;85865;1320;88502;-67
2021/10/28 01:00:43;;;;;;;11.50;9.40;;;;;;;12.48;74.83;101256.11;85850;1320;94434;-66
2021/10/28 01:02:51;;;;;;;13.10;9.80;;;;;;;12.44;74.87;101254.63;85876;1313;80235;-64
2021/10/28 01:04:59;;;;;;;12.90;10.30;;;;;;;12.43;74.81;101255.28;85912;1319;81758;-64
2021/10/28 01:07:08;;;;;;;12.30;9.90;;;;;;;12.41;74.78;101247.91;85855;1313;98796;-64
2021/10/28 01:09:21;;;;;;;11.30;9.80;;;;;;;12.43;74.98;101245.19;85849;1313;88353;-65
2021/10/28 01:11:29;;;;;;;12.00;10.00;;;;;;;12.42;74.96;101244.68;85881;1313;93054;-65
2021/10/28 01:13:38;;;;;;;12.30;10.70;;;;;;;12.41;75.04;101244.48;85861;1320;79439;-64
2021/10/28 01:15:47;;;;;;;11.50;10.20;;;;;;;12.40;75.03;101242.77;85915;1320;83337;-65
2021/10/28 01:17:57;;;;;;;13.30;10.20;;;;;;;12.37;75.14;101244.08;85893;1314;98780;-66
2021/10/28 01:20:10;;;;;;;11.10;9.90;;;;;;;12.35;75.08;101239.98;85888;1320;88705;-66
2021/10/28 01:22:18;;;;;;;13.20;9.30;;;;;;;12.33;75.14;101233.67;85889;1313;94705;-66
2021/10/28 01:24:25;;;;;;;12.90;9.40;;;;;;;12.35;75.23;101231.96;85917;1314;78463;-63
2021/10/28 01:26:33;;;;;;;10.90;9.80;;;;;;;12.36;75.22;101230.06;85704;1313;81186;-64
2021/10/28 01:28:54;;;;;;;13.70;9.60;;;;;;;12.37;75.31;101235.40;85947;1320;97767;-65
2021/10/28 01:31:05;;;;;;;11.90;10.10;;;;;;;12.37;75.32;101233.81;85937;1313;88152;-65
2021/10/28 01:33:12;;;;;;;11.00;9.90;;;;;;;12.37;75.23;101239.16;85917;1317;94099;-66
2021/10/28 01:35:23;;;;;;;10.90;9.70;;;;;;;12.37;75.24;101235.99;85946;1313;80315;-65
2021/10/28 01:37:34;;;;;;;13.60;9.60;;;;;;;12.36;75.26;101239.68;85932;1313;81208;-65
2021/10/28 01:39:45;;;;;;;12.70;9.80;;;;;;;12.37;75.30;101238.48;85855;1317;98362;-66
2021/10/28 01:41:53;;;;;;;11.20;10.00;;;;;;;12.39;75.28;101241.95;85859;1313;88852;-66
2021/10/28 01:44:01;;;;;;;12.00;9.80;;;;;;;12.40;75.43;101239.20;85876;1313;94477;-66
2021/10/28 01:46:09;;;;;;;12.60;9.60;;;;;;;12.39;75.36;101240.20;85909;1320;79954;-65
2021/10/28 01:48:20;;;;;;;13.50;10.40;;;;;;;12.36;75.43;101237.69;85900;1317;82056;-66
2021/10/28 01:50:29;;;;;;;12.20;10.10;;;;;;;12.36;75.36;101236.11;85952;1317;98922;-66
2021/10/28 01:52:39;;;;;;;11.80;9.50;;;;;;;12.36;75.35;101237.89;85878;1314;87001;-65
2021/10/28 01:54:52;;;;;;;10.40;9.30;;;;;;;12.36;75.44;101238.23;85845;1314;93939;-65
2021/10/28 01:57:00;;;;;;;9.70;8.70;;;;;;;12.34;75.46;101233.73;85877;1313;79855;-65
2021/10/28 01:59:07;;;;;;;11.60;10.10;;;;;;;12.34;75.49;101234.98;85875;1314;82620;-64
2021/10/28 02:01:15;;;;;;;11.10;10.00;;;;;;;12.35;75.47;101231.42;85864;1313;97838;-65
2021/10/28 02:03:23;;;;;;;12.20;9.20;;;;;;;12.35;75.53;101230.58;85926;1312;87395;-66
2021/10/28 02:05:30;;;;;;;14.20;9.70;;;;;;;12.37;75.58;101233.07;85889;1317;94669;-65
2021/10/28 02:07:41;;;;;;;13.00;9.40;;;;;;;12.37;75.48;101230.63;85882;1313;79200;-66
2021/10/28 02:09:51;;;;;;;11.40;10.10;;;;;;;12.37;75.54;101229.01;85873;1316;80851;-67
2021/10/28 02:12:02;;;;;;;12.10;9.50;;;;;;;12.37;75.61;101227.95;85873;1320;99320;-67
2021/10/28 02:14:10;;;;;;;12.40;9.90;;;;;;;12.37;75.53;101227.92;85976;1313;88141;-64
2021/10/28 02:16:17;;;;;;;10.70;9.10;;;;;;;12.37;75.59;101232.52;85894;1313;93407;-66
2021/10/28 02:18:25;;;;;;;12.40;9.80;;;;;;;12.34;75.60;101232.30;85930;1313;81257;-64
2021/10/28 02:20:32;;;;;;;10.60;9.00;;;;;;;12.34;75.61;101232.52;85899;1313;83044;-66
2021/10/28 02:22:42;;;;;;;11.70;9.40;;;;;;;12.35;75.62;101237.63;85873;1313;96357;-66
2021/10/28 02:24:50;;;;;;;10.20;8.80;;;;;;;12.35;75.66;101235.42;85862;1320;89261;-66
2021/10/28 02:26:59;;;;;;;11.50;9.50;;;;;;;12.37;75.65;101238.11;85902;1313;94786;-65
2021/10/28 02:29:09;;;;;;;10.20;9.10;;;;;;;12.36;75.71;101234.81;85964;1317;79990;-66
2021/10/28 02:31:17;;;;;;;11.10;9.20;;;;;;;12.35;75.71;101234.04;85858;1320;82384;-66
2021/10/28 02:33:24;;;;;;;12.40;9.10;;;;;;;12.34;75.65;101236.98;85914;1319;97651;-67
2021/10/28 02:35:32;;;;;;;10.90;9.30;;;;;;;12.33;75.73;101235.83;85912;1315;87011;-67
2021/10/28 02:37:42;;;;;;;10.50;8.70;;;;;;;12.34;75.68;101235.59;85881;1319;94605;-66
2021/10/28 02:39:50;;;;;;;11.60;9.80;;;;;;;12.33;75.67;101237.30;85867;1320;79430;-67
2021/10/28 02:41:58;;;;;;;10.00;8.50;;;;;;;12.31;75.74;101241.65;85909;1320;82516;-67
2021/10/28 02:44:06;;;;;;;10.50;9.20;;;;;;;12.29;75.80;101238.64;85886;1313;96903;-65
2021/10/28 02:46:13;;;;;;;12.60;9.30;;;;;;;12.29;75.75;101245.73;85929;1320;87327;-64
2021/10/28 02:48:21;;;;;;;13.00;9.90;;;;;;;12.26;75.74;101250.39;85895;1320;94687;-67
2021/10/28 02:50:28;;;;;;;10.80;8.60;;;;;;;12.26;75.72;101247.40;85756;1316;81678;-66
2021/10/28 02:52:36;;;;;;;11.00;8.80;;;;;;;12.27;75.73;101249.81;85691;1313;83591;-65
2021/10/28 02:54:44;;;;;;;10.80;9.10;;;;;;;12.28;75.88;101248.36;85876;1313;98489;-67
2021/10/28 02:56:52;;;;;;;9.20;8.30;;;;;;;12.26;75.82;101253.98;85888;1320;86937;-67
2021/10/28 02:59:00;;;;;;;13.30;8.90;;;;;;;12.25;75.87;101256.31;85934;1317;94626;-66
2021/10/28 03:01:10;;;;;;;10.30;9.00;;;;;;;12.24;75.98;101256.93;85888;1320;81077;-66
2021/10/28 03:03:18;;;;;;;10.00;9.00;;;;;;;12.23;75.95;101264.55;85856;1317;82169;-67
2021/10/28 03:05:29;;;;;;;12.40;8.30;;;;;;;12.23;75.98;101263.94;85865;1320;96816;-68
2021/10/28 03:07:37;;;;;;;9.90;8.80;;;;;;;12.23;76.02;101260.89;85950;1313;86409;-64
2021/10/28 03:09:47;;;;;;;12.10;9.10;;;;;;;12.24;76.01;101263.54;85915;1317;93967;-67
2021/10/28 03:11:59;;;;;;;12.60;8.40;;;;;;;12.26;76.09;101264.38;85901;1317;79970;-66
2021/10/28 03:14:12;;;;;;;10.90;8.50;;;;;;;12.25;76.04;101269.28;85923;1314;82175;-66
2021/10/28 03:16:26;;;;;;;10.50;9.20;;;;;;;12.22;76.02;101273.16;85872;1313;98363;-66
2021/10/28 03:25:50;;;;;;;9.80;8.30;;;;;;;12.26;76.16;101282.93;85898;1320;80909;-65
2021/10/28 03:28:00;;;;;;;9.50;8.50;;;;;;;12.26;76.06;101285.06;85875;1320;97954;-65
2021/10/28 03:30:10;;;;;;;10.70;8.50;;;;;;;12.25;76.15;101291.24;85892;1320;87769;-67
2021/10/28 03:32:18;;;;;;;9.60;8.50;;;;;;;12.23;76.12;101292.66;85867;1314;93081;-66
2021/10/28 03:34:26;;;;;;;10.70;8.10;;;;;;;12.25;76.14;101294.27;85831;1313;79769;-65
2021/10/28 03:36:43;;;;;;;13.30;8.60;;;;;;;12.24;76.12;101287.69;85702;1319;82332;-65
2021/10/28 03:38:57;;;;;;;10.80;8.40;;;;;;;12.24;76.19;101287.44;85860;1306;98318;-65
2021/10/28 03:41:38;;;;;;;10.70;8.60;;;;;;;12.24;76.22;101288.61;85883;1313;87792;-66
2021/10/28 03:44:12;;;;;;;12.10;8.40;;;;;;;12.21;76.26;101290.91;85896;1319;93599;-66
2021/10/28 03:49:03;;;;;;;11.00;8.40;;;;;;;12.25;76.18;101286.12;85917;1314;81665;-67
2021/10/28 03:59:02;;;;;;;9.00;8.00;;;;;;;12.25;76.19;101303.13;85080;1317;80429;-67
2021/10/28 04:01:31;;;;;;;8.80;7.90;;;;;;;12.26;76.17;101304.77;85409;1327;82241;-67
2021/10/28 04:06:23;;;;;;;10.10;9.00;;;;;;;12.26;76.17;101305.51;85159;1327;87243;-66
2021/10/28 04:08:51;;;;;;;11.00;8.40;;;;;;;12.27;76.18;101312.58;85083;1325;92385;-66
2021/10/28 04:30:35;;;;;;;11.00;8.90;;;;;;;12.20;76.28;101314.15;85538;1317;88647;-65
2021/10/28 04:32:48;;;;;;;11.00;9.00;;;;;;;12.22;76.20;101311.25;85734;1319;93731;-65
2021/10/28 04:34:56;;;;;;;9.80;8.80;;;;;;;12.20;76.23;101313.09;85709;1315;78397;-66
2021/10/28 04:37:09;;;;;;;11.10;9.10;;;;;;;12.18;76.22;101312.23;85758;1315;82651;-67
2021/10/28 04:39:16;;;;;;;10.70;8.70;;;;;;;12.18;76.12;101313.55;85765;1320;96454;-65
2021/10/28 04:41:27;;;;;;;11.40;8.70;;;;;;;12.18;76.14;101313.89;85711;1315;88246;-66
2021/10/28 04:43:35;;;;;;;10.50;9.50;;;;;;;12.21;76.24;101314.65;85761;1316;93088;-65
2021/10/28 04:45:42;;;;;;;11.40;9.20;;;;;;;12.18;76.31;101312.36;85735;1316;79136;-66
2021/10/28 04:47:52;;;;;;;9.80;8.80;;;;;;;12.16;76.28;101312.65;85721;1317;80637;-65
2021/10/28 04:50:00;;;;;;;13.30;9.80;;;;;;;12.14;76.24;101316.73;85813;1317;97717;-65
2021/10/28 04:52:11;;;;;;;11.80;10.10;;;;;;;12.13;76.20;101315.75;85681;1315;88198;-63
2021/10/28 04:54:19;;;;;;;11.00;9.70;;;;;;;12.16;76.35;101324.40;85795;1319;94496;-66
2021/10/28 04:56:26;;;;;;;12.90;10.70;;;;;;;12.16;76.30;101329.23;85738;1319;79641;-65
2021/10/28 04:58:34;;;;;;;12.40;10.30;;;;;;;12.16;76.28;101331.85;85784;1320;81936;-66
2021/10/28 05:00:41;;;;;;;12.30;10.30;;;;;;;12.15;76.34;101331.41;85732;1315;96203;-69
2021/10/28 05:02:49;;;;;;;11.20;10.00;;;;;;;12.15;76.35;101332.42;85719;1315;88246;-67
2021/10/28 05:04:56;;;;;;;13.90;10.90;;;;;;;12.16;76.36;101328.05;85796;1315;93907;-65
2021/10/28 05:07:05;;;;;;;12.30;10.00;;;;;;;12.17;76.31;101328.07;85721;1317;80972;-66
2021/10/28 05:09:16;;;;;;;12.10;10.80;;;;;;;12.16;76.44;101329.58;85666;1317;83093;-65
2021/10/28 05:11:25;;;;;;;11.40;10.20;;;;;;;12.15;76.51;101333.00;85767;1320;96952;-66
2021/10/28 05:13:32;;;;;;;11.90;10.10;;;;;;;12.15;76.38;101335.20;85721;1317;88693;-64
2021/10/28 05:15:44;;;;;;;11.90;10.70;;;;;;;12.15;76.35;101334.79;85762;1317;95632;-64
2021/10/28 05:17:54;;;;;;;11.20;10.10;;;;;;;12.15;76.37;101335.34;85806;1317;81082;-63
2021/10/28 05:20:02;;;;;;;10.80;9.70;;;;;;;12.15;76.35;101339.27;85815;1317;82029;-65
2021/10/28 05:22:10;;;;;;;12.30;10.30;;;;;;;12.16;76.40;101336.65;85754;1317;97538;-64
2021/10/28 05:24:18;;;;;;;11.00;9.80;;;;;;;12.15;76.39;101341.50;85735;1317;86594;-67
2021/10/28 05:26:26;;;;;;;12.40;11.20;;;;;;;12.13;76.49;101339.08;85715;1315;94781;-64
2021/10/28 05:28:34;;;;;;;13.60;11.50;;;;;;;12.12;76.38;101337.31;85652;1319;79741;-67
2021/10/28 05:30:41;;;;;;;13.90;11.60;;;;;;;12.10;76.50;101340.58;85672;1317;81450;-66
2021/10/28 05:32:49;;;;;;;12.50;10.90;;;;;;;12.11;76.38;101341.29;85718;1317;96708;-65
2021/10/28 05:34:59;;;;;;;12.20;10.90;;;;;;;12.10;76.50;101341.70;85801;1315;87967;-66
2021/10/28 05:37:08;;;;;;;13.90;11.80;;;;;;;12.08;76.60;101348.03;85702;1320;94718;-64
2021/10/28 05:39:15;;;;;;;13.70;11.90;;;;;;;12.05;76.45;101350.61;85783;1315;80022;-64
2021/10/28 05:41:23;;;;;;;13.10;11.80;;;;;;;12.05;76.57;101355.59;85705;1316;80695;-64
2021/10/28 05:43:30;;;;;;;13.50;12.10;;;;;;;12.06;76.51;101356.64;85774;1321;98408;-67
2021/10/28 05:45:38;;;;;;;14.60;12.80;;;;;;;12.07;76.60;101360.98;85815;1319;88946;-65
2021/10/28 05:47:46;;;;;;;13.70;12.30;;;;;;;12.08;76.56;101359.77;85793;1321;94568;-67
2021/10/28 05:49:54;;;;;;;18.00;13.00;;;;;;;12.06;76.71;101356.30;85808;1316;80008;-64
2021/10/28 05:52:01;;;;;;;17.50;13.20;;;;;;;12.05;76.74;101360.54;85680;1317;81481;-65
2021/10/28 05:54:09;;;;;;;15.70;13.70;;;;;;;12.05;76.73;101360.58;85778;1317;97381;-64
2021/10/28 05:56:20;;;;;;;15.00;12.70;;;;;;;12.07;76.59;101363.91;85721;1315;89063;-65
2021/10/28 05:58:27;;;;;;;14.80;13.00;;;;;;;12.10;76.71;101364.79;85732;1317;94688;-63
2021/10/28 06:00:35;;;;;;;14.80;13.20;;;;;;;12.12;76.72;101365.48;85780;1317;78673;-64
2021/10/28 06:02:46;;;;;;;15.50;13.90;;;;;;;12.15;76.65;101363.47;85744;1316;80937;-65
2021/10/28 06:04:53;;;;;;;15.70;13.30;;;;;;;12.16;76.68;101360.33;85697;1320;96524;-66
2021/10/28 06:07:01;;;;;;;15.40;13.80;;;;;;;12.16;76.53;101362.31;85721;1317;87872;-66
2021/10/28 06:09:11;;;;;;;15.70;13.90;;;;;;;12.15;76.67;101362.42;85914;1318;94578;-66
2021/10/28 06:11:23;;;;;;;16.10;14.20;;;;;;;12.15;76.72;101363.48;85920;1319;77532;-67
2021/10/28 06:13:42;;;;;;;18.40;14.90;;;;;;;12.16;76.71;101367.95;85936;1315;81249;-66
2021/10/28 06:15:52;;;;;;;16.80;15.00;;;;;;;12.16;76.66;101370.45;85995;1313;95043;-66
2021/10/28 06:18:11;;;;;;;19.30;14.30;;;;;;;12.17;76.66;101373.80;85874;1318;87547;-67
2021/10/28 06:20:22;;;;;;;18.10;14.60;;;;;;;12.17;76.62;101371.72;86034;1313;95952;-66
2021/10/28 06:22:30;;;;;;;17.00;15.20;;;;;;;12.18;76.69;101375.99;85989;1312;78964;-67
2021/10/28 06:24:37;;;;;;;17.00;15.00;;;;;;;12.22;76.76;101374.65;86030;1313;82446;-65
2021/10/28 06:26:48;;;;;;;19.90;14.90;;;;;;;12.25;76.66;101379.35;85893;1314;97065;-67
2021/10/28 06:28:55;;;;;;;16.50;14.80;;;;;;;12.26;76.62;101382.26;85842;1312;88612;-66
2021/10/28 06:31:03;;;;;;;18.30;14.20;;;;;;;12.25;76.68;101385.23;85979;1313;95173;-66
2021/10/28 06:33:14;;;;;;;18.00;15.00;;;;;;;12.26;76.63;101391.13;85819;1316;77859;-66
2021/10/28 06:35:25;;;;;;;16.00;14.30;;;;;;;12.26;76.64;101385.91;86000;1313;82152;-67
2021/10/28 06:37:33;;;;;;;16.40;14.60;;;;;;;12.29;76.56;101390.74;86078;1317;97319;-67
2021/10/28 06:39:46;;;;;;;15.10;13.50;;;;;;;12.31;76.56;101390.19;85990;1313;88277;-65
2021/10/28 06:42:03;;;;;;;15.60;14.00;;;;;;;12.30;76.55;101386.30;85781;1316;94154;-68
2021/10/28 06:44:12;;;;;;;15.40;13.70;;;;;;;12.28;76.52;101390.64;85842;1312;80443;-66
2021/10/28 06:46:20;;;;;;;17.00;14.00;;;;;;;12.30;76.52;101394.77;85887;1311;80589;-66
2021/10/28 06:48:34;;;;;;;16.00;14.30;;;;;;;12.34;76.52;101395.09;85853;1313;98539;-67
2021/10/28 06:50:47;;;;;;;16.30;14.60;;;;;;;12.37;76.51;101397.98;85748;1317;90276;-65
2021/10/28 06:53:00;;;;;;;15.30;13.80;;;;;;;12.40;76.41;101399.23;85843;1312;94655;-65
2021/10/28 06:55:10;;;;;;;19.30;15.20;;;;;;;12.42;76.42;101398.88;85955;1314;81271;-67
2021/10/28 06:57:46;;;;;;;18.10;14.30;;;;;;;12.44;76.22;101399.14;86015;1318;81159;-64
2021/10/28 07:02:45;;;;;;;16.60;14.80;;;;;;;12.53;76.31;101402.77;86008;1313;87985;-67
2021/10/28 07:04:57;;;;;;;16.50;14.80;;;;;;;12.54;76.28;101399.43;85828;1314;94256;-65
2021/10/28 07:07:05;;;;;;;18.70;15.10;;;;;;;12.55;76.25;101405.33;85857;1313;78559;-66
2021/10/28 07:09:19;;;;;;;17.10;14.90;;;;;;;12.54;76.25;101404.30;85947;1316;82813;-65
2021/10/28 07:11:29;;;;;;;18.90;15.30;;;;;;;12.55;76.15;101403.32;85864;1314;97396;-66
2021/10/28 07:13:41;;;;;;;17.20;15.10;;;;;;;12.58;76.19;101403.53;85871;1314;88419;-66
2021/10/28 07:15:53;;;;;;;16.70;14.80;;;;;;;12.61;76.15;101405.45;85863;1317;94403;-66
2021/10/28 07:18:19;;;;;;;17.20;14.50;;;;;;;12.65;76.15;101405.03;85889;1312;78624;-65
2021/10/28 07:32:42;;;;;;;17.20;14.10;;;;;;;12.71;75.97;101393.25;85914;1312;81901;-65
2021/10/28 07:35:11;;;;;;;19.20;15.30;;;;;;;12.73;75.92;101392.13;85850;1312;96877;-66
2021/10/28 07:59:47;;;;;;;18.60;16.60;;;;;;;13.12;75.56;101401.79;85934;1316;97771;-65
2021/10/28 08:15:21;;;;;;;20.60;15.60;;;;;;;13.40;75.05;101415.64;85855;1312;88584;-64
2021/10/28 08:17:53;;;;;;;46.50;36.60;;;;;;;13.44;75.04;101407.19;85989;1313;94881;-64
2021/10/28 08:20:04;;;;;;;26.40;19.50;;;;;;;13.48;74.92;101409.42;85879;1312;80107;-64
2021/10/28 08:22:20;;;;;;;18.30;16.40;;;;;;;13.50;74.89;101406.04;85881;1317;82503;-64
2021/10/28 08:28:39;;;;;;;20.30;15.80;;;;;;;13.49;74.68;101404.70;85870;1311;96810;-64
2021/10/28 08:29:33;;;;;;;17.60;15.00;;;;;;;13.53;74.52;101411.81;85947;1317;93548;-63
2021/10/28 08:31:43;;;;;;;19.00;14.70;;;;;;;13.59;74.58;101412.19;85951;1314;79417;-64
2021/10/28 08:33:55;;;;;;;19.20;14.70;;;;;;;13.61;74.58;101411.03;85901;1315;83479;-64
2021/10/28 08:36:09;;;;;;;19.50;14.50;;;;;;;13.65;74.46;101407.13;86054;1315;97698;-63
2021/10/28 08:38:16;;;;;;;15.70;14.10;;;;;;;13.65;74.23;101402.78;86003;1313;86599;-66
2021/10/28 08:40:28;;;;;;;16.70;14.90;;;;;;;13.67;74.18;101404.05;85985;1312;94395;-67
2021/10/28 08:42:40;;;;;;;16.20;14.30;;;;;;;13.69;74.24;101405.79;85894;1314;80773;-67
2021/10/28 08:44:55;;;;;;;14.60;12.80;;;;;;;13.74;74.17;101401.53;85978;1314;81533;-64
2021/10/28 08:47:08;;;;;;;15.90;13.90;;;;;;;13.74;73.98;101403.20;85936;1315;97318;-70
2021/10/28 08:49:23;;;;;;;16.90;14.00;;;;;;;13.76;73.98;101404.98;86000;1313;87807;-64
2021/10/28 08:51:51;;;;;;;15.80;13.90;;;;;;;13.80;73.97;101409.11;85990;1317;94641;-65
2021/10/28 08:57:10;;;;;;;16.10;13.50;;;;;;;13.86;73.82;101403.46;85609;1318;82366;-63
2021/10/28 08:59:56;;;;;;;15.40;13.80;;;;;;;13.88;73.66;101404.54;85941;1317;99004;-66
2021/10/28 09:25:07;;;;;;;15.20;13.30;;;;;;;14.39;72.64;101407.14;86036;1313;98390;-65
2021/10/28 09:27:20;;;;;;;14.80;13.10;;;;;;;14.45;72.59;101406.58;86007;1315;89000;-63
2021/10/28 09:29:37;;;;;;;15.30;13.40;;;;;;;14.54;72.51;101411.13;85994;1319;94481;-64
2021/10/28 09:32:01;;;;;;;14.70;13.20;;;;;;;14.62;72.54;101408.01;85950;1312;78893;-62
2021/10/28 09:34:25;;;;;;;15.10;13.50;;;;;;;14.72;72.46;101412.14;85914;1319;82568;-64
2021/10/28 09:44:01;;;;;;;15.60;13.60;;;;;;;15.02;71.78;101410.38;85931;1314;79613;-64
2021/10/28 09:46:21;;;;;;;15.90;13.80;;;;;;;15.12;71.78;101411.31;85978;1317;81837;-65
2021/10/28 09:48:44;;;;;;;14.60;13.10;;;;;;;15.21;71.62;101413.03;85948;1314;97691;-65
2021/10/28 09:50:54;;;;;;;15.10;13.50;;;;;;;15.26;71.29;101413.60;85882;1315;87755;-66
2021/10/28 09:53:13;;;;;;;15.00;12.90;;;;;;;15.32;71.23;101407.76;85844;1312;93308;-67
2021/10/28 09:57:52;;;;;;;15.20;13.60;;;;;;;15.55;70.96;101413.05;85966;1312;81560;-70
2021/10/28 10:00:00;;;;;;;16.70;13.80;;;;;;;15.61;70.71;101412.17;85906;1317;98353;-66
2021/10/28 10:02:17;;;;;;;14.80;12.90;;;;;;;15.64;70.47;101408.21;85853;1315;88413;-68
2021/10/28 10:04:31;;;;;;;16.50;14.30;;;;;;;15.68;70.27;101407.16;85814;1312;94471;-65
2021/10/28 10:06:43;;;;;;;14.30;12.90;;;;;;;15.74;70.14;101403.77;85981;1316;79370;-65
2021/10/28 10:08:51;;;;;;;15.30;13.20;;;;;;;15.78;70.00;101406.89;85991;1302;80205;-65
2021/10/28 10:11:02;;;;;;;15.80;13.80;;;;;;;15.78;69.86;101407.41;85866;1313;97966;-66
2021/10/28 10:13:10;;;;;;;14.30;12.80;;;;;;;15.79;69.73;101413.39;85825;1312;88238;-65
2021/10/28 10:15:21;;;;;;;13.40;11.90;;;;;;;15.80;69.54;101412.36;85856;1312;93067;-63
2021/10/28 10:17:28;;;;;;;13.30;12.00;;;;;;;15.76;69.39;101414.17;85871;1310;79212;-64
2021/10/28 10:19:39;;;;;;;13.50;12.10;;;;;;;15.72;69.09;101411.09;85999;1317;82383;-66
2021/10/28 10:21:52;;;;;;;14.00;12.40;;;;;;;15.65;69.01;101413.67;85885;1317;98562;-66
2021/10/28 10:24:19;;;;;;;13.50;12.10;;;;;;;15.63;69.04;101412.48;85896;1313;88613;-65
2021/10/28 10:29:39;;;;;;;16.60;12.80;;;;;;;15.58;68.84;101411.52;83143;1361;601402;-66
2021/10/28 11:04:56;;;;;;;9.10;8.10;;;;;;;15.07;68.41;101413.66;85488;1323;97824;-65
2021/10/28 11:26:06;;;;;;;10.70;8.70;;;;;;;14.77;67.88;101403.70;83089;1355;601126;-64
2021/10/28 11:31:32;;;;;;;10.30;9.30;;;;;;;14.79;67.88;101401.05;85155;1326;81432;-64
2021/10/28 12:44:56;;;;;;;13.60;12.20;;;;;;;15.04;66.04;101352.00;85427;1326;79967;-64
2021/10/28 12:52:29;;;;;;;12.90;11.60;;;;;;;14.72;66.04;101360.55;85475;1322;87156;-64
2021/10/28 12:54:58;;;;;;;13.70;12.20;;;;;;;14.58;66.22;101355.13;85448;1326;94521;-64
2021/10/28 13:48:52;;;;;;;34.10;30.40;;;;;;;13.07;68.67;101329.73;85970;1314;81355;-64
2021/10/28 13:58:26;;;;;;;16.60;14.40;;;;;;;12.93;69.18;101329.55;86024;1316;80602;-65
2021/10/28 14:31:00;;;;;;;18.10;16.20;;;;;;;12.23;70.40;101331.36;86032;1312;86977;-65
2021/10/28 14:38:45;;;;;;;19.80;16.80;;;;;;;11.91;70.84;101332.36;85111;1326;78135;-70
2021/10/28 15:29:30;;;;;;;17.90;16.10;;;;;;;9.91;74.18;101323.74;85618;1322;82188;-65
2021/10/28 15:34:36;;;;;;;22.50;18.40;;;;;;;9.75;74.68;101322.06;85759;1317;87529;-64
2021/10/28 15:36:47;;;;;;;18.30;16.40;;;;;;;9.69;74.77;101321.13;85678;1316;94740;-62
2021/10/28 15:39:04;;;;;;;24.00;17.40;;;;;;;9.60;74.98;101317.02;85755;1316;78362;-62
2021/10/28 15:41:44;;;;;;;19.20;16.00;;;;;;;9.53;75.10;101317.90;85549;1321;82002;-63
2021/10/28 15:53:48;;;;;;;19.60;16.70;;;;;;;9.08;75.74;101321.21;85679;1316;81246;-63
2021/10/28 16:01:24;;;;;;;23.10;17.80;;;;;;;8.91;76.32;101312.96;85464;1324;95073;-62
2021/10/28 16:23:02;;;;;;;19.60;17.20;;;;;;;8.39;77.25;101316.65;85676;1317;88450;-64
2021/10/28 16:25:10;;;;;;;19.70;16.90;;;;;;;8.34;77.46;101320.58;85577;1319;94746;-65
2021/10/28 16:27:21;;;;;;;22.40;17.10;;;;;;;8.30;77.52;101315.52;85689;1323;80708;-62
2021/10/28 16:29:30;;;;;;;20.80;16.60;;;;;;;8.27;77.71;101313.52;85697;1323;81807;-63
2021/10/28 16:31:39;;;;;;;21.80;16.40;;;;;;;8.22;77.71;101306.11;85489;1320;97906;-63
2021/10/28 16:33:49;;;;;;;21.00;16.20;;;;;;;8.16;77.81;101308.45;85726;1317;89353;-63
2021/10/28 16:35:56;;;;;;;23.80;17.50;;;;;;;8.10;77.93;101309.60;85651;1319;94452;-62
2021/10/28 16:38:08;;;;;;;20.90;17.10;;;;;;;8.07;78.07;101309.08;85665;1316;80266;-61
2021/10/28 16:40:16;;;;;;;23.10;17.80;;;;;;;8.04;78.31;101308.61;85696;1317;83052;-62
2021/10/28 16:42:24;;;;;;;24.10;17.60;;;;;;;8.05;78.49;101313.90;85672;1316;96435;-62
2021/10/28 16:44:32;;;;;;;22.10;16.50;;;;;;;8.04;78.50;101308.30;85629;1317;89734;-63
2021/10/28 16:46:40;;;;;;;21.70;16.50;;;;;;;8.01;78.55;101306.89;85515;1319;94296;-60
2021/10/28 16:48:49;;;;;;;21.50;16.40;;;;;;;8.00;78.72;101309.40;85641;1317;78720;-62
2021/10/28 16:50:57;;;;;;;23.50;17.50;;;;;;;7.98;78.65;101314.08;85609;1322;82332;-61
2021/10/28 16:53:04;;;;;;;27.50;19.10;;;;;;;8.01;78.84;101315.38;85667;1322;98681;-61
2021/10/28 16:55:13;;;;;;;22.80;17.40;;;;;;;7.99;78.89;101317.75;85614;1319;87544;-63
2021/10/28 16:57:23;;;;;;;24.10;18.30;;;;;;;7.96;78.90;101315.71;85669;1316;95071;-63
2021/10/28 16:59:31;;;;;;;23.10;17.30;;;;;;;7.97;79.13;101318.67;85596;1324;80563;-60
2021/10/28 17:01:39;;;;;;;23.90;18.70;;;;;;;7.98;79.11;101315.86;85540;1319;80105;-61
2021/10/28 17:03:47;;;;;;;25.70;18.50;;;;;;;7.98;79.03;101313.69;85651;1317;97696;-62
2021/10/28 17:05:55;;;;;;;23.50;17.30;;;;;;;7.98;79.16;101316.41;85704;1317;87672;-60
2021/10/28 17:08:03;;;;;;;24.30;18.30;;;;;;;7.97;79.25;101317.55;85521;1322;93745;-63
2021/10/28 17:10:12;;;;;;;24.10;18.30;;;;;;;7.93;79.11;101319.71;85690;1316;81708;-63
2021/10/28 17:12:21;;;;;;;44.20;29.00;;;;;;;7.89;79.20;101319.27;85700;1317;81220;-63
2021/10/28 17:14:28;;;;;;;31.90;24.50;;;;;;;7.84;79.30;101319.80;85577;1325;96182;-61
2021/10/28 17:16:44;;;;;;;28.50;20.30;;;;;;;7.80;79.28;101322.16;85655;1322;88166;-62
2021/10/28 17:18:52;;;;;;;24.70;19.50;;;;;;;7.77;79.42;101321.20;85648;1322;94910;-62
2021/10/28 17:21:04;;;;;;;24.80;19.00;;;;;;;7.73;79.46;101324.06;85689;1317;80949;-61
2021/10/28 17:23:14;;;;;;;25.20;19.30;;;;;;;7.70;79.49;101322.02;85774;1316;81794;-62
2021/10/28 17:25:25;;;;;;;26.10;19.90;;;;;;;7.66;79.82;101319.64;85652;1319;96463;-62
2021/10/28 17:27:34;;;;;;;25.30;19.30;;;;;;;7.66;79.79;101318.80;85839;1323;88197;-65
2021/10/28 17:29:45;;;;;;;23.30;18.50;;;;;;;7.62;79.61;101319.74;85715;1317;93744;-62
2021/10/28 17:31:55;;;;;;;26.30;19.20;;;;;;;7.62;79.99;101322.92;85647;1317;78267;-61
2021/10/28 17:34:04;;;;;;;27.70;19.60;;;;;;;7.60;79.83;101321.37;85488;1325;82358;-63
2021/10/28 17:36:13;;;;;;;27.10;20.00;;;;;;;7.61;80.04;101320.38;85656;1322;98225;-62
2021/10/28 17:38:21;;;;;;;26.40;19.20;;;;;;;7.63;80.14;101318.54;85692;1319;85858;-67